sensor_id;sensor_type;location;lat;lon;timestamp;pressure;altitude;pressure_sealevel;temperature;humidity
59240;BME280;45010;53.640;10.578;2023-11-19T00:00:59;100315.31;;;24.97;34.85
59240;BME280;45010;53.640;10.578;2023-11-19T00:04:00;100323.38;;;25.02;34.90
59240;BME280;45010;53.640;10.578;2023-11-19T00:07:00;100306.06;;;25.05;34.70
59240;BME280;45010;53.640;10.578;2023-11-19T00:10:04;100299.38;;;25.02;34.86
59240;BME280;45010;53.640;10.578;2023-11-19T00:13:07;100285.78;;;25.04;34.97
59240;BME280;45010;53.640;10.578;2023-11-19T00:16:07;100263.56;;;24.98;34.95
59240;BME280;45010;53.640;10.578;2023-11-19T00:19:09;100276.97;;;25.03;34.80
59240;BME280;45010;53.640;10.578;2023-11-19T00:22:10;100268.16;;;25.03;34.79
59240;BME280;45010;53.640;10.578;2023-11-19T00:25:10;100260.97;;;25.03;34.65
59240;BME280;45010;53.640;10.578;2023-11-19T00:28:10;100247.03;;;25.01;35.08
59240;BME280;45010;53.640;10.578;2023-11-19T00:31:10;100232.69;;;25.02;34.96
59240;BME280;45010;53.640;10.578;2023-11-19T00:34:11;100227.34;;;25.02;34.92
59240;BME280;45010;53.640;10.578;2023-11-19T00:37:12;100232.69;;;25.02;34.94
59240;BME280;45010;53.640;10.578;2023-11-19T00:40:12;100211.34;;;25.02;34.99
59240;BME280;45010;53.640;10.578;2023-11-19T00:43:12;100199.03;;;25.01;34.97
59240;BME280;45010;53.640;10.578;2023-11-19T00:46:13;100193.69;;;25.01;34.89
59240;BME280;45010;53.640;10.578;2023-11-19T00:49:16;100178.19;;;24.98;35.03
59240;BME280;45010;53.640;10.578;2023-11-19T00:52:17;100179.31;;;25.02;34.93
59240;BME280;45010;53.640;10.578;2023-11-19T00:55:17;100166.47;;;24.99;34.89
59240;BME280;45010;53.640;10.578;2023-11-19T00:58:17;100164.94;;;25.03;34.88
59240;BME280;45010;53.640;10.578;2023-11-19T01:01:18;100152.66;;;25.02;34.79
59240;BME280;45010;53.640;10.578;2023-11-19T01:04:18;100143.00;;;25.01;35.00
59240;BME280;45010;53.640;10.578;2023-11-19T01:07:19;100146.50;;;25.02;34.89
59240;BME280;45010;53.640;10.578;2023-11-19T01:10:19;100123.22;;;24.97;34.79
59240;BME280;45010;53.640;10.578;2023-11-19T01:13:20;100124.31;;;25.01;34.83
59240;BME280;45010;53.640;10.578;2023-11-19T01:16:20;100109.97;;;25.02;35.00
59240;BME280;45010;53.640;10.578;2023-11-19T01:19:21;100093.06;;;24.96;34.98
59240;BME280;45010;53.640;10.578;2023-11-19T01:22:22;100094.44;;;24.99;34.95
59240;BME280;45010;53.640;10.578;2023-11-19T01:25:23;100087.50;;;24.98;34.99
59240;BME280;45010;53.640;10.578;2023-11-19T01:28:23;100076.22;;;24.91;35.05
59240;BME280;45010;53.640;10.578;2023-11-19T01:31:23;100078.44;;;24.99;35.02
59240;BME280;45010;53.640;10.578;2023-11-19T01:34:24;100069.38;;;25.00;35.00
59240;BME280;45010;53.640;10.578;2023-11-19T01:37:24;100059.28;;;25.02;35.43
59240;BME280;45010;53.640;10.578;2023-11-19T01:40:25;100047.53;;;25.03;35.30
59240;BME280;45010;53.640;10.578;2023-11-19T01:43:33;100026.69;;;25.00;35.30
59240;BME280;45010;53.640;10.578;2023-11-19T01:46:35;100014.16;;;25.01;35.45
59240;BME280;45010;53.640;10.578;2023-11-19T01:49:35;100012.91;;;25.08;35.00
59240;BME280;45010;53.640;10.578;2023-11-19T01:52:36;100005.44;;;25.10;35.38
59240;BME280;45010;53.640;10.578;2023-11-19T01:55:37;99996.38;;;25.11;35.39
59240;BME280;45010;53.640;10.578;2023-11-19T01:58:39;99994.78;;;25.10;35.11
59240;BME280;45010;53.640;10.578;2023-11-19T02:01:40;99988.44;;;25.17;35.36
59240;BME280;45010;53.640;10.578;2023-11-19T02:04:41;99991.63;;;25.19;35.26
59240;BME280;45010;53.640;10.578;2023-11-19T02:07:41;99984.22;;;25.21;35.20
59240;BME280;45010;53.640;10.578;2023-11-19T02:10:42;99982.91;;;25.23;35.12
59240;BME280;45010;53.640;10.578;2023-11-19T02:13:43;99978.91;;;25.26;35.10
59240;BME280;45010;53.640;10.578;2023-11-19T02:16:44;99965.88;;;25.30;34.81
59240;BME280;45010;53.640;10.578;2023-11-19T02:19:45;99973.59;;;25.31;35.20
59240;BME280;45010;53.640;10.578;2023-11-19T02:22:49;99958.94;;;25.34;34.93
59240;BME280;45010;53.640;10.578;2023-11-19T02:26:02;99951.22;;;25.37;35.04
59240;BME280;45010;53.640;10.578;2023-11-19T02:29:02;99943.78;;;25.39;34.72
59240;BME280;45010;53.640;10.578;2023-11-19T02:32:03;99935.25;;;25.43;34.81
59240;BME280;45010;53.640;10.578;2023-11-19T02:35:03;99921.41;;;25.46;34.75
59240;BME280;45010;53.640;10.578;2023-11-19T02:38:04;99904.88;;;25.49;34.67
59240;BME280;45010;53.640;10.578;2023-11-19T02:41:06;99887.25;;;25.48;34.49
59240;BME280;45010;53.640;10.578;2023-11-19T02:44:07;99892.41;;;25.55;34.64
59240;BME280;45010;53.640;10.578;2023-11-19T02:47:07;99832.16;;;25.26;34.46
59240;BME280;45010;53.640;10.578;2023-11-19T02:50:09;99872.41;;;25.62;34.19
59240;BME280;45010;53.640;10.578;2023-11-19T02:53:14;99875.63;;;25.64;34.22
59240;BME280;45010;53.640;10.578;2023-11-19T02:56:16;99856.97;;;25.70;34.21
59240;BME280;45010;53.640;10.578;2023-11-19T02:59:26;99850.00;;;25.74;34.08
59240;BME280;45010;53.640;10.578;2023-11-19T03:02:40;99823.81;;;25.65;34.31
59240;BME280;45010;53.640;10.578;2023-11-19T03:05:44;99836.69;;;25.79;34.40
59240;BME280;45010;53.640;10.578;2023-11-19T03:08:45;99824.94;;;25.80;34.10
59240;BME280;45010;53.640;10.578;2023-11-19T03:11:46;99818.81;;;25.79;34.42
59240;BME280;45010;53.640;10.578;2023-11-19T03:14:46;99817.50;;;25.87;34.09
59240;BME280;45010;53.640;10.578;2023-11-19T03:17:48;99824.97;;;25.90;34.22
59240;BME280;45010;53.640;10.578;2023-11-19T03:20:48;99808.44;;;25.94;33.87
59240;BME280;45010;53.640;10.578;2023-11-19T03:23:49;99797.22;;;25.97;33.79
59240;BME280;45010;53.640;10.578;2023-11-19T03:26:50;99797.22;;;25.97;33.92
59240;BME280;45010;53.640;10.578;2023-11-19T03:29:50;99789.75;;;25.99;33.58
59240;BME280;45010;53.640;10.578;2023-11-19T03:32:50;99789.75;;;25.99;33.85
59240;BME280;45010;53.640;10.578;2023-11-19T03:35:51;99786.00;;;26.00;33.65
59240;BME280;45010;53.640;10.578;2023-11-19T03:38:52;99778.53;;;26.02;33.54
59240;BME280;45010;53.640;10.578;2023-11-19T03:41:52;99765.69;;;26.04;33.77
59240;BME280;45010;53.640;10.578;2023-11-19T03:44:53;99756.34;;;26.06;33.56
59240;BME280;45010;53.640;10.578;2023-11-19T03:47:54;99757.69;;;26.09;33.81
59240;BME280;45010;53.640;10.578;2023-11-19T03:50:54;99747.56;;;26.11;33.77
59240;BME280;45010;53.640;10.578;2023-11-19T03:53:54;99752.91;;;26.11;33.50
59240;BME280;45010;53.640;10.578;2023-11-19T03:56:55;99740.34;;;26.12;33.51
59240;BME280;45010;53.640;10.578;2023-11-19T03:59:55;99739.53;;;26.11;33.70
59240;BME280;45010;53.640;10.578;2023-11-19T04:02:55;99734.19;;;26.11;33.43
59240;BME280;45010;53.640;10.578;2023-11-19T04:05:56;99726.19;;;26.11;33.56
59240;BME280;45010;53.640;10.578;2023-11-19T04:08:56;99735.00;;;26.12;33.45
59240;BME280;45010;53.640;10.578;2023-11-19T04:11:57;99721.63;;;26.06;33.47
59240;BME280;45010;53.640;10.578;2023-11-19T04:14:57;99722.19;;;26.14;33.57
59240;BME280;45010;53.640;10.578;2023-11-19T04:17:58;99709.59;;;26.14;33.52
59240;BME280;45010;53.640;10.578;2023-11-19T04:20:58;99711.50;;;26.14;33.52
59240;BME280;45010;53.640;10.578;2023-11-19T04:23:59;99708.81;;;26.14;33.72
59240;BME280;45010;53.640;10.578;2023-11-19T04:26:59;99695.16;;;26.15;33.50
59240;BME280;45010;53.640;10.578;2023-11-19T04:29:59;99700.53;;;26.21;33.29
59240;BME280;45010;53.640;10.578;2023-11-19T04:33:01;99693.06;;;26.23;33.21
59240;BME280;45010;53.640;10.578;2023-11-19T04:36:02;99683.19;;;26.23;33.20
59240;BME280;45010;53.640;10.578;2023-11-19T04:39:03;99660.97;;;26.12;33.43
59240;BME280;45010;53.640;10.578;2023-11-19T04:42:09;99671.38;;;26.19;33.21
59240;BME280;45010;53.640;10.578;2023-11-19T04:45:10;99669.00;;;26.17;33.33
59240;BME280;45010;53.640;10.578;2023-11-19T04:48:10;99655.09;;;26.15;33.31
59240;BME280;45010;53.640;10.578;2023-11-19T04:51:12;99638.53;;;26.13;33.05
59240;BME280;45010;53.640;10.578;2023-11-19T04:54:12;99649.47;;;26.12;33.20
59240;BME280;45010;53.640;10.578;2023-11-19T04:57:13;99643.88;;;26.08;33.09
59240;BME280;45010;53.640;10.578;2023-11-19T05:00:13;99655.63;;;26.02;33.15
59240;BME280;45010;53.640;10.578;2023-11-19T05:03:14;99636.41;;;26.00;33.30
59240;BME280;45010;53.640;10.578;2023-11-19T05:06:14;99639.34;;;25.98;33.39
59240;BME280;45010;53.640;10.578;2023-11-19T05:09:15;99647.34;;;25.93;33.48
59240;BME280;45010;53.640;10.578;2023-11-19T05:12:16;99638.00;;;25.90;33.63
59240;BME280;45010;53.640;10.578;2023-11-19T05:15:16;99662.59;;;25.87;33.68
59240;BME280;45010;53.640;10.578;2023-11-19T05:18:16;99625.97;;;25.83;33.46
59240;BME280;45010;53.640;10.578;2023-11-19T05:21:17;99634.78;;;25.78;33.92
59240;BME280;45010;53.640;10.578;2023-11-19T05:24:17;99613.97;;;25.75;33.53
59240;BME280;45010;53.640;10.578;2023-11-19T05:27:18;99617.41;;;25.70;33.61
59240;BME280;45010;53.640;10.578;2023-11-19T05:30:18;99612.63;;;25.67;33.85
59240;BME280;45010;53.640;10.578;2023-11-19T05:33:18;99604.84;;;25.60;33.76
59240;BME280;45010;53.640;10.578;2023-11-19T05:36:19;99594.72;;;25.57;33.77
59240;BME280;45010;53.640;10.578;2023-11-19T05:39:19;99597.91;;;25.54;34.08
59240;BME280;45010;53.640;10.578;2023-11-19T05:42:20;99600.53;;;25.49;33.90
59240;BME280;45010;53.640;10.578;2023-11-19T05:45:20;99594.94;;;25.45;34.08
59240;BME280;45010;53.640;10.578;2023-11-19T05:48:20;99598.41;;;25.41;34.23
59240;BME280;45010;53.640;10.578;2023-11-19T05:51:21;99591.97;;;25.36;34.13
59240;BME280;45010;53.640;10.578;2023-11-19T05:54:21;99584.50;;;25.33;34.28
59240;BME280;45010;53.640;10.578;2023-11-19T05:57:22;99585.84;;;25.31;34.19
59240;BME280;45010;53.640;10.578;2023-11-19T06:00:25;99584.50;;;25.28;34.17
59240;BME280;45010;53.640;10.578;2023-11-19T06:03:26;99585.00;;;25.25;34.49
59240;BME280;45010;53.640;10.578;2023-11-19T06:06:28;99575.38;;;25.08;34.37
59240;BME280;45010;53.640;10.578;2023-11-19T06:09:28;99594.63;;;25.21;34.46
59240;BME280;45010;53.640;10.578;2023-11-19T06:12:29;99587.13;;;25.18;34.62
59240;BME280;45010;53.640;10.578;2023-11-19T06:15:29;99587.69;;;25.15;34.60
59240;BME280;45010;53.640;10.578;2023-11-19T06:18:29;99575.38;;;25.08;34.73
59240;BME280;45010;53.640;10.578;2023-11-19T06:21:31;99577.00;;;25.09;34.61
59240;BME280;45010;53.640;10.578;2023-11-19T06:24:31;99580.72;;;25.08;34.85
59240;BME280;45010;53.640;10.578;2023-11-19T06:27:32;99574.84;;;25.06;34.46
59240;BME280;45010;53.640;10.578;2023-11-19T06:30:32;99579.63;;;25.04;34.81
59240;BME280;45010;53.640;10.578;2023-11-19T06:33:32;99580.16;;;25.01;34.95
59240;BME280;45010;53.640;10.578;2023-11-19T06:36:33;99580.69;;;24.98;34.92
59240;BME280;45010;53.640;10.578;2023-11-19T06:39:34;99589.75;;;24.97;34.98
59240;BME280;45010;53.640;10.578;2023-11-19T06:42:35;99556.09;;;24.85;34.88
59240;BME280;45010;53.640;10.578;2023-11-19T06:45:36;99574.25;;;24.94;35.37
59240;BME280;45010;53.640;10.578;2023-11-19T06:48:39;99577.47;;;24.91;34.57
59240;BME280;45010;53.640;10.578;2023-11-19T06:51:42;99581.72;;;24.92;35.15
59240;BME280;45010;53.640;10.578;2023-11-19T06:54:44;99580.06;;;24.80;35.06
59240;BME280;45010;53.640;10.578;2023-11-19T06:57:45;99581.47;;;24.88;35.19
59240;BME280;45010;53.640;10.578;2023-11-19T07:00:45;99585.19;;;24.87;35.03
59240;BME280;45010;53.640;10.578;2023-11-19T07:03:47;99581.72;;;24.87;35.08
59240;BME280;45010;53.640;10.578;2023-11-19T07:06:48;99580.91;;;24.86;35.20
59240;BME280;45010;53.640;10.578;2023-11-19T07:09:49;99576.34;;;24.81;34.99
59240;BME280;45010;53.640;10.578;2023-11-19T07:12:49;99579.53;;;24.83;35.09
59240;BME280;45010;53.640;10.578;2023-11-19T07:15:50;99580.63;;;24.82;35.18
59240;BME280;45010;53.640;10.578;2023-11-19T07:18:51;99587.03;;;24.81;35.10
59240;BME280;45010;53.640;10.578;2023-11-19T07:21:51;99584.56;;;24.80;35.07
59240;BME280;45010;53.640;10.578;2023-11-19T07:24:54;99578.47;;;24.79;35.24
59240;BME280;45010;53.640;10.578;2023-11-19T07:27:54;99577.91;;;24.77;35.09
59240;BME280;45010;53.640;10.578;2023-11-19T07:30:55;99584.28;;;24.76;35.41
59240;BME280;45010;53.640;10.578;2023-11-19T07:33:56;99568.84;;;24.73;35.34
59240;BME280;45010;53.640;10.578;2023-11-19T07:36:56;99577.91;;;24.72;35.20
59240;BME280;45010;53.640;10.578;2023-11-19T07:40:02;99587.75;;;24.71;35.45
59240;BME280;45010;53.640;10.578;2023-11-19T07:43:03;99582.91;;;24.68;35.50
59240;BME280;45010;53.640;10.578;2023-11-19T07:46:03;99590.38;;;24.66;35.41
59240;BME280;45010;53.640;10.578;2023-11-19T07:49:04;99582.66;;;24.65;35.32
59240;BME280;45010;53.640;10.578;2023-11-19T07:52:04;99584.78;;;24.63;35.45
59240;BME280;45010;53.640;10.578;2023-11-19T07:55:05;99588.75;;;24.60;35.51
59240;BME280;45010;53.640;10.578;2023-11-19T07:58:05;99587.41;;;24.57;35.59
59240;BME280;45010;53.640;10.578;2023-11-19T08:01:06;99595.66;;;24.56;35.65
59240;BME280;45010;53.640;10.578;2023-11-19T08:04:06;99588.72;;;24.55;35.69
59240;BME280;45010;53.640;10.578;2023-11-19T08:07:07;99590.03;;;24.52;35.64
59240;BME280;45010;53.640;10.578;2023-11-19T08:10:07;99588.97;;;24.48;35.75
59240;BME280;45010;53.640;10.578;2023-11-19T08:13:11;99588.69;;;24.50;35.88
59240;BME280;45010;53.640;10.578;2023-11-19T08:16:11;99593.50;;;24.48;35.70
59240;BME280;45010;53.640;10.578;2023-11-19T08:19:12;99586.56;;;24.47;35.91
59240;BME280;45010;53.640;10.578;2023-11-19T08:22:13;99557.69;;;24.28;36.04
59240;BME280;45010;53.640;10.578;2023-11-19T08:25:13;99593.22;;;24.44;35.88
59240;BME280;45010;53.640;10.578;2023-11-19T08:28:13;99590.00;;;24.42;35.94
59240;BME280;45010;53.640;10.578;2023-11-19T08:31:13;99587.59;;;24.40;35.85
59240;BME280;45010;53.640;10.578;2023-11-19T08:34:14;99597.44;;;24.40;35.97
59240;BME280;45010;53.640;10.578;2023-11-19T08:37:15;99595.84;;;24.39;36.23
59240;BME280;45010;53.640;10.578;2023-11-19T08:40:18;99597.97;;;24.37;36.06
59240;BME280;45010;53.640;10.578;2023-11-19T08:43:18;99597.97;;;24.37;36.20
59240;BME280;45010;53.640;10.578;2023-11-19T08:46:18;99609.13;;;24.34;36.17
59240;BME280;45010;53.640;10.578;2023-11-19T08:49:19;99607.53;;;24.33;36.23
59240;BME280;45010;53.640;10.578;2023-11-19T08:52:19;99605.13;;;24.31;36.66
59240;BME280;45010;53.640;10.578;2023-11-19T08:55:19;99608.56;;;24.26;37.35
59240;BME280;45010;53.640;10.578;2023-11-19T08:58:20;99614.38;;;24.23;37.44
59240;BME280;45010;53.640;10.578;2023-11-19T09:01:20;99612.78;;;24.22;37.54
59240;BME280;45010;53.640;10.578;2023-11-19T09:04:20;99613.84;;;24.21;37.67
59240;BME280;45010;53.640;10.578;2023-11-19T09:07:23;99621.34;;;24.24;37.74
59240;BME280;45010;53.640;10.578;2023-11-19T09:10:24;99621.06;;;24.26;37.94
59240;BME280;45010;53.640;10.578;2023-11-19T09:13:24;99614.69;;;24.27;37.90
59240;BME280;45010;53.640;10.578;2023-11-19T09:16:24;99630.97;;;24.30;37.71
59240;BME280;45010;53.640;10.578;2023-11-19T09:19:25;99613.88;;;24.26;37.79
59240;BME280;45010;53.640;10.578;2023-11-19T09:22:28;99631.53;;;24.38;37.86
59240;BME280;45010;53.640;10.578;2023-11-19T09:25:29;99640.88;;;24.40;37.67
59240;BME280;45010;53.640;10.578;2023-11-19T09:28:29;99620.59;;;24.34;37.63
59240;BME280;45010;53.640;10.578;2023-11-19T09:31:29;99642.28;;;24.48;37.65
59240;BME280;45010;53.640;10.578;2023-11-19T09:34:30;99640.16;;;24.50;37.58
59240;BME280;45010;53.640;10.578;2023-11-19T09:37:30;99641.25;;;24.54;37.35
59240;BME280;45010;53.640;10.578;2023-11-19T09:40:30;99613.19;;;24.41;37.45
59240;BME280;45010;53.640;10.578;2023-11-19T09:43:32;99641.28;;;24.60;37.35
59240;BME280;45010;53.640;10.578;2023-11-19T09:46:32;99637.28;;;24.62;37.34
59240;BME280;45010;53.640;10.578;2023-11-19T09:49:33;99643.97;;;24.65;37.46
59240;BME280;45010;53.640;10.578;2023-11-19T09:52:35;99647.72;;;24.69;37.56
59240;BME280;45010;53.640;10.578;2023-11-19T09:55:36;99592.34;;;24.33;37.38
59240;BME280;45010;53.640;10.578;2023-11-19T09:58:36;99634.41;;;24.74;37.30
59240;BME280;45010;53.640;10.578;2023-11-19T10:01:38;99635.75;;;24.71;37.40
59240;BME280;45010;53.640;10.578;2023-11-19T10:04:39;99637.88;;;24.75;37.05
59240;BME280;45010;53.640;10.578;2023-11-19T10:07:42;99647.31;;;24.88;37.21
59240;BME280;45010;53.640;10.578;2023-11-19T10:10:43;99645.75;;;24.92;37.01
59240;BME280;45010;53.640;10.578;2023-11-19T10:13:43;99630.81;;;24.91;36.94
59240;BME280;45010;53.640;10.578;2023-11-19T10:16:45;99634.81;;;24.98;36.90
59240;BME280;45010;53.640;10.578;2023-11-19T10:19:46;99655.66;;;25.02;36.80
59240;BME280;45010;53.640;10.578;2023-11-19T10:22:46;99627.66;;;25.04;36.94
59240;BME280;45010;53.640;10.578;2023-11-19T10:25:47;99609.50;;;24.96;36.87
59240;BME280;45010;53.640;10.578;2023-11-19T10:28:48;99608.97;;;24.99;36.81
59240;BME280;45010;53.640;10.578;2023-11-19T10:31:55;99628.22;;;25.11;37.01
59240;BME280;45010;53.640;10.578;2023-11-19T10:35:04;99621.25;;;25.05;36.91
59240;BME280;45010;53.640;10.578;2023-11-19T10:38:15;99644.75;;;25.19;36.90
59240;BME280;45010;53.640;10.578;2023-11-19T10:41:26;99632.00;;;25.21;37.03
59240;BME280;45010;53.640;10.578;2023-11-19T10:44:33;99643.22;;;25.28;36.65
59240;BME280;45010;53.640;10.578;2023-11-19T10:47:36;99646.41;;;25.30;36.98
59240;BME280;45010;53.640;10.578;2023-11-19T10:50:40;99622.09;;;25.21;37.08
59240;BME280;45010;53.640;10.578;2023-11-19T10:53:42;99656.59;;;25.38;37.03
59240;BME280;45010;53.640;10.578;2023-11-19T10:56:44;99649.63;;;25.43;36.90
59240;BME280;45010;53.640;10.578;2023-11-19T10:59:47;99637.88;;;25.33;36.78
59240;BME280;45010;53.640;10.578;2023-11-19T11:02:50;99629.34;;;25.36;36.73
59240;BME280;45010;53.640;10.578;2023-11-19T11:05:54;99652.31;;;25.48;36.53
59240;BME280;45010;53.640;10.578;2023-11-19T11:08:55;99653.94;;;25.49;36.57
59240;BME280;45010;53.640;10.578;2023-11-19T11:11:57;99660.59;;;25.51;36.68
59240;BME280;45010;53.640;10.578;2023-11-19T11:14:59;99647.56;;;25.55;36.76
59240;BME280;45010;53.640;10.578;2023-11-19T11:18:02;99664.88;;;25.52;36.35
59240;BME280;45010;53.640;10.578;2023-11-19T11:21:09;99663.06;;;25.58;36.23
59240;BME280;45010;53.640;10.578;2023-11-19T11:27:57;99660.94;;;25.60;36.57
59240;BME280;45010;53.640;10.578;2023-11-19T11:34:28;99660.41;;;25.63;36.55
59240;BME280;45010;53.640;10.578;2023-11-19T11:37:39;99654.00;;;25.59;36.34
59240;BME280;45010;53.640;10.578;2023-11-19T11:40:43;99656.66;;;25.64;36.43
59240;BME280;45010;53.640;10.578;2023-11-19T11:43:44;99640.06;;;25.52;36.41
59240;BME280;45010;53.640;10.578;2023-11-19T11:46:54;99666.81;;;25.68;36.54
59240;BME280;45010;53.640;10.578;2023-11-19T11:49:55;99673.78;;;25.69;36.78
59240;BME280;45010;53.640;10.578;2023-11-19T11:55:58;99660.13;;;25.65;36.39
59240;BME280;45010;53.640;10.578;2023-11-19T11:58:59;99662.56;;;25.72;36.66
59240;BME280;45010;53.640;10.578;2023-11-19T12:02:00;99664.97;;;25.73;36.45
59240;BME280;45010;53.640;10.578;2023-11-19T12:05:00;99666.31;;;25.76;36.57
59240;BME280;45010;53.640;10.578;2023-11-19T12:08:04;99668.97;;;25.76;36.44
59240;BME280;45010;53.640;10.578;2023-11-19T12:11:07;99666.84;;;25.78;36.37
59240;BME280;45010;53.640;10.578;2023-11-19T12:14:08;99662.00;;;25.80;36.56
59240;BME280;45010;53.640;10.578;2023-11-19T12:20:34;99668.97;;;25.81;36.95
59240;BME280;45010;53.640;10.578;2023-11-19T12:23:44;99654.31;;;25.84;36.76
59240;BME280;45010;53.640;10.578;2023-11-19T12:26:46;99669.50;;;25.83;37.00
59240;BME280;45010;53.640;10.578;2023-11-19T12:29:50;99668.69;;;25.83;37.29
59240;BME280;45010;53.640;10.578;2023-11-19T12:32:51;99671.94;;;25.85;37.09
59240;BME280;45010;53.640;10.578;2023-11-19T12:35:53;99670.03;;;25.85;37.00
59240;BME280;45010;53.640;10.578;2023-11-19T12:38:54;99666.84;;;25.88;37.26
59240;BME280;45010;53.640;10.578;2023-11-19T12:41:54;99668.44;;;25.89;36.86
59240;BME280;45010;53.640;10.578;2023-11-19T12:44:55;99660.69;;;25.88;37.20
59240;BME280;45010;53.640;10.578;2023-11-19T12:48:06;99673.78;;;25.89;37.08
59240;BME280;45010;53.640;10.578;2023-11-19T12:51:07;99657.75;;;25.89;37.39
59240;BME280;45010;53.640;10.578;2023-11-19T12:54:08;99664.72;;;25.90;37.54
59240;BME280;45010;53.640;10.578;2023-11-19T12:57:08;99660.19;;;25.91;37.44
59240;BME280;45010;53.640;10.578;2023-11-19T13:00:19;99663.63;;;25.91;37.27
59240;BME280;45010;53.640;10.578;2023-11-19T13:03:36;99659.91;;;25.92;37.59
59240;BME280;45010;53.640;10.578;2023-11-19T13:06:44;99660.44;;;25.95;37.69
59240;BME280;45010;53.640;10.578;2023-11-19T13:09:45;99649.75;;;25.95;37.31
59240;BME280;45010;53.640;10.578;2023-11-19T13:13:02;99643.34;;;25.90;37.47
59240;BME280;45010;53.640;10.578;2023-11-19T13:16:04;99649.22;;;25.98;37.34
59240;BME280;45010;53.640;10.578;2023-11-19T13:19:09;99650.84;;;25.99;37.29
59240;BME280;45010;53.640;10.578;2023-11-19T13:22:10;99650.84;;;25.99;37.34
59240;BME280;45010;53.640;10.578;2023-11-19T13:25:10;99657.78;;;26.00;37.26
59240;BME280;45010;53.640;10.578;2023-11-19T13:28:10;99651.88;;;26.03;37.49
59240;BME280;45010;53.640;10.578;2023-11-19T13:31:11;99655.63;;;26.02;37.47
59240;BME280;45010;53.640;10.578;2023-11-19T13:34:11;99661.78;;;26.02;37.52
59240;BME280;45010;53.640;10.578;2023-11-19T13:37:11;99656.16;;;26.04;37.40
59240;BME280;45010;53.640;10.578;2023-11-19T13:40:12;99658.81;;;26.04;37.35
59240;BME280;45010;53.640;10.578;2023-11-19T13:43:15;99648.13;;;26.04;37.08
59240;BME280;45010;53.640;10.578;2023-11-19T13:46:15;99649.75;;;26.05;37.20
59240;BME280;45010;53.640;10.578;2023-11-19T13:49:16;99644.44;;;26.05;36.96
59240;BME280;45010;53.640;10.578;2023-11-19T13:52:16;99646.03;;;26.06;37.42
59240;BME280;45010;53.640;10.578;2023-11-19T13:55:17;99652.41;;;26.10;37.39
59240;BME280;45010;53.640;10.578;2023-11-19T13:58:18;99646.03;;;26.06;37.04
59240;BME280;45010;53.640;10.578;2023-11-19T14:01:18;99657.22;;;26.08;36.85
59240;BME280;45010;53.640;10.578;2023-11-19T14:04:18;99658.31;;;26.07;36.96
59240;BME280;45010;53.640;10.578;2023-11-19T14:07:19;99664.16;;;26.04;36.87
59240;BME280;45010;53.640;10.578;2023-11-19T14:10:19;99659.38;;;26.01;36.87
59240;BME280;45010;53.640;10.578;2023-11-19T14:13:19;99662.56;;;25.98;36.66
59240;BME280;45010;53.640;10.578;2023-11-19T14:16:20;99660.44;;;25.95;36.78
59240;BME280;45010;53.640;10.578;2023-11-19T14:19:21;99658.84;;;25.94;36.86
59240;BME280;45010;53.640;10.578;2023-11-19T14:22:21;99654.03;;;25.90;36.87
59240;BME280;45010;53.640;10.578;2023-11-19T14:25:21;99654.56;;;25.87;37.09
59240;BME280;45010;53.640;10.578;2023-11-19T14:28:23;99650.56;;;25.85;36.93
59240;BME280;45010;53.640;10.578;2023-11-19T14:31:27;99650.28;;;25.81;36.83
59240;BME280;45010;53.640;10.578;2023-11-19T14:34:31;99655.88;;;25.79;36.76
59240;BME280;45010;53.640;10.578;2023-11-19T14:37:32;99650.53;;;25.69;36.87
59240;BME280;45010;53.640;10.578;2023-11-19T14:40:33;99654.00;;;25.70;36.96
59240;BME280;45010;53.640;10.578;2023-11-19T14:43:33;99627.78;;;25.46;36.89
59240;BME280;45010;53.640;10.578;2023-11-19T14:46:33;99662.28;;;25.63;36.91
59240;BME280;45010;53.640;10.578;2023-11-19T14:49:37;99666.53;;;25.59;37.21
59240;BME280;45010;53.640;10.578;2023-11-19T14:52:37;99653.41;;;25.47;37.17
59240;BME280;45010;53.640;10.578;2023-11-19T14:55:37;99671.06;;;25.53;36.57
59240;BME280;45010;53.640;10.578;2023-11-19T14:58:38;99664.59;;;25.49;37.18
59240;BME280;45010;53.640;10.578;2023-11-19T15:01:39;99654.47;;;25.46;37.25
59240;BME280;45010;53.640;10.578;2023-11-19T15:04:40;99660.31;;;25.43;37.25
59240;BME280;45010;53.640;10.578;2023-11-19T15:07:42;99666.19;;;25.39;37.30
59240;BME280;45010;53.640;10.578;2023-11-19T15:10:42;99670.44;;;25.35;37.40
59240;BME280;45010;53.640;10.578;2023-11-19T15:13:44;99672.31;;;25.30;36.96
59240;BME280;45010;53.640;10.578;2023-11-19T15:16:45;99660.28;;;25.22;37.46
59240;BME280;45010;53.640;10.578;2023-11-19T15:19:46;99673.34;;;25.23;37.57
59240;BME280;45010;53.640;10.578;2023-11-19T15:22:47;99671.44;;;25.19;37.82
59240;BME280;45010;53.640;10.578;2023-11-19T15:25:48;99687.47;;;25.19;37.72
59240;BME280;45010;53.640;10.578;2023-11-19T15:28:49;99686.41;;;25.15;37.52
59240;BME280;45010;53.640;10.578;2023-11-19T15:31:49;99681.56;;;25.11;37.53
59240;BME280;45010;53.640;10.578;2023-11-19T15:34:49;99687.97;;;25.10;37.78
59240;BME280;45010;53.640;10.578;2023-11-19T15:37:50;99693.28;;;25.05;37.70
59240;BME280;45010;53.640;10.578;2023-11-19T15:40:50;99699.16;;;25.02;37.74
59240;BME280;45010;53.640;10.578;2023-11-19T15:43:51;99701.25;;;25.00;37.96
59240;BME280;45010;53.640;10.578;2023-11-19T15:46:52;99704.44;;;24.97;37.77
59240;BME280;45010;53.640;10.578;2023-11-19T15:49:53;99703.88;;;24.95;37.82
59240;BME280;45010;53.640;10.578;2023-11-19T15:52:54;99716.69;;;24.93;38.02
59240;BME280;45010;53.640;10.578;2023-11-19T15:55:54;99719.84;;;24.90;37.80
59240;BME280;45010;53.640;10.578;2023-11-19T15:58:54;99711.28;;;24.82;37.72